Time;durP1;ratioP1;P1;durP2;ratioP2;P2;SDS_P1;SDS_P2;PMS_P1;PMS_P2;Temp;Humidity;BMP_temperature;BMP_pressure;BME280_temperature;BME280_humidity;BME280_pressure;Samples;Min_cycle;Max_cycle;Signal;HPM_P1;HPM_P2
2022/10/22 00:00:15;;;;;;;15.33;12.13;;;;;;;8.95;100.00;102245.97;2064210;28;20215;-62
2022/10/22 00:01:16;;;;;;;15.38;11.38;;;;;;;8.92;100.00;102249.50;2064328;28;20192;-62
2022/10/22 00:02:19;;;;;;;16.60;11.33;;;;;;;8.89;100.00;102248.28;2063555;28;20197;-62
2022/10/22 00:03:19;;;;;;;16.50;11.90;;;;;;;8.85;100.00;102244.69;2063364;28;20245;-61
2022/10/22 00:04:20;;;;;;;13.30;11.50;;;;;;;8.55;100.00;102194.28;2064149;28;20660;-61
2022/10/22 00:05:20;;;;;;;13.37;10.50;;;;;;;8.82;100.00;102239.16;2064388;28;20190;-62
2022/10/22 00:06:21;;;;;;;14.93;11.13;;;;;;;8.67;100.00;102224.38;2063550;28;20566;-62
2022/10/22 00:07:21;;;;;;;14.67;10.50;;;;;;;8.73;100.00;102231.19;2063402;28;20208;-62
2022/10/22 00:08:22;;;;;;;12.60;11.03;;;;;;;8.73;100.00;102230.38;2064331;28;20680;-61
2022/10/22 00:09:22;;;;;;;14.80;12.13;;;;;;;7.90;100.00;102112.31;2063972;28;20210;-61
2022/10/22 00:10:23;;;;;;;14.00;11.57;;;;;;;8.66;100.00;102233.84;2063512;28;20188;-62
2022/10/22 00:11:24;;;;;;;16.17;11.40;;;;;;;8.70;100.00;102247.69;2063156;28;20191;-62
2022/10/22 00:12:25;;;;;;;15.43;11.60;;;;;;;8.66;100.00;102227.56;2063786;28;20198;-61
2022/10/22 00:13:25;;;;;;;18.63;11.70;;;;;;;8.71;100.00;102235.50;2063721;28;20207;-62
2022/10/22 00:14:26;;;;;;;20.53;12.20;;;;;;;8.70;100.00;102245.75;2064189;28;20190;-62
2022/10/22 00:15:26;;;;;;;14.03;10.83;;;;;;;7.86;100.00;102100.44;2063963;28;20196;-61
2022/10/22 00:16:26;;;;;;;13.10;11.40;;;;;;;8.68;100.00;102237.03;2064572;28;20719;-62
2022/10/22 00:17:27;;;;;;;14.47;11.70;;;;;;;8.69;100.00;102240.59;2064290;28;20200;-62
2022/10/22 00:18:27;;;;;;;18.53;11.87;;;;;;;8.71;100.00;102233.50;2063147;28;20351;-62
2022/10/22 00:19:28;;;;;;;14.83;11.73;;;;;;;8.17;100.00;102139.44;2063596;28;20194;-61
2022/10/22 00:20:28;;;;;;;14.83;11.90;;;;;;;8.67;100.00;102235.44;2063886;28;20200;-62
2022/10/22 00:21:29;;;;;;;17.93;11.93;;;;;;;8.67;100.00;102240.19;2064048;28;20203;-61
2022/10/22 00:22:30;;;;;;;14.87;11.57;;;;;;;8.62;100.00;102235.78;2064077;28;20218;-62
2022/10/22 00:23:30;;;;;;;14.87;11.00;;;;;;;8.60;100.00;102240.09;2063619;28;20190;-61
2022/10/22 00:24:32;;;;;;;14.80;10.83;;;;;;;8.61;100.00;102233.41;2064467;28;20182;-62
2022/10/22 00:25:34;;;;;;;13.13;10.88;;;;;;;8.59;100.00;102239.31;2062773;28;20586;-62
2022/10/22 00:26:34;;;;;;;13.57;11.73;;;;;;;7.96;100.00;102139.22;2062753;28;20205;-61
2022/10/22 00:27:35;;;;;;;14.87;11.63;;;;;;;8.54;100.00;102234.13;2064066;28;20212;-61
2022/10/22 00:28:36;;;;;;;21.57;12.90;;;;;;;8.46;100.00;102221.41;2062395;28;20194;-61
2022/10/22 00:29:36;;;;;;;19.93;12.03;;;;;;;8.53;100.00;102229.78;2064122;28;20356;-61
2022/10/22 00:30:37;;;;;;;19.50;12.50;;;;;;;7.64;100.00;102084.84;2064028;28;20663;-62
2022/10/22 00:31:37;;;;;;;18.63;12.53;;;;;;;8.49;100.00;102222.63;2063350;28;20281;-61
2022/10/22 00:32:38;;;;;;;25.00;12.57;;;;;;;8.48;100.00;102223.81;2063596;28;20201;-61
2022/10/22 00:33:38;;;;;;;17.50;12.13;;;;;;;8.38;100.00;102202.38;2062721;28;20206;-62
2022/10/22 00:34:39;;;;;;;13.70;11.27;;;;;;;8.48;100.00;102212.75;2064155;28;20270;-62
2022/10/22 00:35:39;;;;;;;16.50;11.97;;;;;;;8.50;100.00;102213.19;2062803;28;20579;-61
2022/10/22 00:36:39;;;;;;;16.07;12.10;;;;;;;8.44;100.00;102207.19;2063998;28;20198;-61
2022/10/22 00:37:40;;;;;;;17.10;11.97;;;;;;;8.45;100.00;102203.25;2063996;28;20536;-62
2022/10/22 00:38:41;;;;;;;14.37;11.63;;;;;;;8.41;100.00;102201.63;2063675;28;20795;-62
2022/10/22 00:39:41;;;;;;;17.93;12.17;;;;;;;8.41;100.00;102196.13;2063730;28;20190;-61
2022/10/22 00:40:42;;;;;;;14.40;11.73;;;;;;;8.38;100.00;102205.97;2064239;28;20426;-61
2022/10/22 00:41:43;;;;;;;15.17;12.40;;;;;;;8.39;100.00;102204.78;2062964;28;20182;-62
2022/10/22 00:42:44;;;;;;;14.98;12.43;;;;;;;8.40;100.00;102206.34;2062357;28;20202;-62
2022/10/22 00:43:55;;;;;;;14.40;12.00;;;;;;;8.38;100.00;102208.72;2062612;28;20237;-62
2022/10/22 00:45:04;;;;;;;16.95;12.25;;;;;;;8.37;100.00;102209.09;2063961;28;20190;-61
2022/10/22 00:46:05;;;;;;;15.10;11.75;;;;;;;8.36;100.00;102207.50;2064011;28;20202;-61
2022/10/22 00:47:05;;;;;;;16.70;12.50;;;;;;;8.36;100.00;102205.53;2064132;28;20191;-61
2022/10/22 00:48:09;;;;;;;16.83;12.37;;;;;;;8.37;100.00;102200.81;2063223;28;20235;-62
2022/10/22 00:49:09;;;;;;;17.30;11.55;;;;;;;7.82;100.00;102105.94;2063610;28;20193;-62
2022/10/22 00:50:20;;;;;;;13.27;11.87;;;;;;;7.90;100.00;102115.06;2063555;28;20229;-61
2022/10/22 00:51:24;;;;;;;15.07;11.73;;;;;;;8.22;100.00;102165.94;2062939;28;20183;-62
2022/10/22 00:52:24;;;;;;;13.73;11.45;;;;;;;8.17;100.00;102186.38;2063096;28;20245;-61
2022/10/22 00:53:30;;;;;;;16.43;12.03;;;;;;;8.36;100.00;102191.72;2063490;28;20221;-61
2022/10/22 00:54:32;;;;;;;13.70;11.85;;;;;;;8.40;100.00;102189.00;2063181;28;20183;-62
2022/10/22 00:55:32;;;;;;;15.02;11.57;;;;;;;8.34;100.00;102173.94;2061479;28;20209;-61
2022/10/22 00:56:33;;;;;;;13.87;12.10;;;;;;;8.37;100.00;102176.75;2063863;28;20190;-62
2022/10/22 00:57:34;;;;;;;15.80;12.60;;;;;;;7.64;100.00;102062.75;2063830;28;20206;-62
2022/10/22 00:58:40;;;;;;;16.50;12.40;;;;;;;8.32;100.00;102173.53;2063187;28;20197;-62
2022/10/22 00:59:41;;;;;;;16.83;12.45;;;;;;;8.26;100.00;102162.00;2063864;28;20264;-61
2022/10/22 01:00:42;;;;;;;13.53;11.70;;;;;;;8.26;100.00;102162.00;2063898;28;20337;-62
2022/10/22 01:01:44;;;;;;;16.67;12.13;;;;;;;8.31;100.00;102167.19;2063646;28;20213;-61
2022/10/22 01:02:45;;;;;;;14.45;12.65;;;;;;;7.81;100.00;102086.97;2062671;28;20190;-61
2022/10/22 01:03:45;;;;;;;15.37;12.10;;;;;;;8.34;100.00;102174.72;2062529;28;20192;-61
2022/10/22 01:04:46;;;;;;;15.67;12.00;;;;;;;7.91;100.00;102114.72;2064031;28;20249;-62
2022/10/22 01:05:58;;;;;;;17.60;11.97;;;;;;;8.30;100.00;102181.41;2064044;28;20725;-62
2022/10/22 01:06:59;;;;;;;15.93;12.07;;;;;;;8.28;100.00;102170.72;2063860;28;20306;-61
2022/10/22 01:08:00;;;;;;;16.70;12.40;;;;;;;8.23;100.00;102168.31;2063821;28;20278;-62
2022/10/22 01:09:06;;;;;;;15.20;11.43;;;;;;;8.25;100.00;102179.00;2063710;28;20197;-61
2022/10/22 01:10:39;;;;;;;16.73;11.25;;;;;;;8.19;100.00;102178.50;2063808;28;20683;-62
2022/10/22 01:11:51;;;;;;;14.23;11.10;;;;;;;7.98;100.00;102183.78;2066566;28;20202;-61
2022/10/22 01:13:08;;;;;;;13.73;11.02;;;;;;;7.74;100.00;102161.41;2064061;28;20750;-62
2022/10/22 01:14:20;;;;;;;13.13;11.10;;;;;;;7.91;100.00;102188.44;2063933;28;20671;-62
2022/10/22 01:15:39;;;;;;;12.32;10.77;;;;;;;7.90;100.00;102187.63;2064065;28;20660;-63
2022/10/22 01:17:08;;;;;;;15.40;11.75;;;;;;;7.86;100.00;102175.78;2063932;28;20181;-61
2022/10/22 01:18:24;;;;;;;12.95;10.65;;;;;;;7.87;100.00;102177.34;2071106;28;20205;-61
2022/10/22 01:19:39;;;;;;;17.85;11.50;;;;;;;7.88;100.00;102176.19;2063078;28;20687;-62
2022/10/22 01:20:58;;;;;;;14.30;11.35;;;;;;;7.94;100.00;102173.88;2063444;28;20197;-61
2022/10/22 01:22:07;;;;;;;12.48;11.10;;;;;;;7.92;100.00;102165.16;2063587;28;20186;-62
2022/10/22 01:23:49;;;;;;;12.65;10.88;;;;;;;7.93;100.00;102158.47;2062800;28;20221;-62
2022/10/22 01:24:55;;;;;;;13.35;11.57;;;;;;;7.92;100.00;102156.88;2063138;28;20205;-62
2022/10/22 01:26:10;;;;;;;13.43;10.95;;;;;;;7.90;100.00;102162.78;2063656;28;20183;-61
2022/10/22 01:27:30;;;;;;;14.30;11.32;;;;;;;7.91;100.00;102164.41;2062986;28;20232;-62
2022/10/22 01:28:55;;;;;;;13.18;10.85;;;;;;;7.96;100.00;102163.25;2063706;28;20206;-61
2022/10/22 01:30:01;;;;;;;14.73;11.20;;;;;;;7.82;100.00;102129.97;2063551;28;20325;-61
2022/10/22 01:31:03;;;;;;;13.25;10.95;;;;;;;7.97;100.00;102153.78;2063760;28;20186;-61
2022/10/22 01:32:10;;;;;;;17.45;11.88;;;;;;;7.93;100.00;102162.03;2063354;28;20751;-62
2022/10/22 01:33:14;;;;;;;13.18;11.05;;;;;;;7.95;100.00;102164.44;2062565;28;20560;-61
2022/10/22 01:34:17;;;;;;;17.83;11.88;;;;;;;7.91;100.00;102163.59;2063459;28;20199;-61
2022/10/22 01:35:24;;;;;;;13.60;11.48;;;;;;;7.90;100.00;102175.81;2063702;28;20190;-62
2022/10/22 01:36:24;;;;;;;16.75;12.00;;;;;;;7.95;100.00;102173.47;2064092;28;20178;-62
2022/10/22 01:37:29;;;;;;;14.63;11.23;;;;;;;7.97;100.00;102171.16;2064036;28;20185;-61
2022/10/22 01:38:30;;;;;;;16.70;11.63;;;;;;;7.94;100.00;102177.41;2063303;28;20277;-61
2022/10/22 01:39:33;;;;;;;12.77;10.32;;;;;;;7.51;100.00;102114.63;2064462;28;20174;-62
2022/10/22 01:40:35;;;;;;;14.93;11.30;;;;;;;7.94;100.00;102171.13;2064863;28;20695;-61
2022/10/22 01:41:38;;;;;;;28.83;12.25;;;;;;;7.41;100.00;102090.47;2065250;28;20222;-62
2022/10/22 01:42:39;;;;;;;17.52;11.20;;;;;;;7.93;100.00;102164.00;2065333;28;20236;-62
2022/10/22 01:43:39;;;;;;;15.13;11.70;;;;;;;7.92;100.00;102171.50;2065105;28;20194;-62
2022/10/22 01:44:40;;;;;;;14.87;11.47;;;;;;;7.38;100.00;102095.94;2065106;28;20222;-62
2022/10/22 01:45:55;;;;;;;15.40;11.45;;;;;;;7.88;100.00;102165.13;2065304;28;20214;-61
2022/10/22 01:47:10;;;;;;;15.07;11.35;;;;;;;7.84;100.00;102158.78;2064651;28;20201;-61
2022/10/22 01:48:29;;;;;;;16.42;11.23;;;;;;;7.77;100.00;102160.66;2063504;28;20265;-61
2022/10/22 01:49:51;;;;;;;14.88;12.00;;;;;;;7.67;100.00;102153.03;2065110;28;20201;-61
2022/10/22 01:51:06;;;;;;;15.10;12.35;;;;;;;7.71;100.00;102171.25;2065482;28;20723;-62
2022/10/22 01:52:31;;;;;;;15.65;11.77;;;;;;;7.71;100.00;102170.44;2065193;28;20220;-61
2022/10/22 01:54:07;;;;;;;15.98;11.25;;;;;;;7.73;100.00;102171.66;2064773;28;20189;-61
2022/10/22 01:55:25;;;;;;;14.60;11.45;;;;;;;7.68;100.00;102163.72;2065354;28;20692;-61
2022/10/22 01:57:02;;;;;;;14.95;11.35;;;;;;;7.46;100.00;102125.19;2065056;28;20652;-62
2022/10/22 01:58:11;;;;;;;13.18;11.18;;;;;;;7.74;100.00;102170.47;2065779;28;20550;-62
2022/10/22 01:59:24;;;;;;;15.73;11.15;;;;;;;7.79;100.00;102161.09;2065081;28;20694;-62
2022/10/22 02:00:25;;;;;;;18.00;11.43;;;;;;;7.82;100.00;102160.31;2065186;28;20179;-62
2022/10/22 02:01:30;;;;;;;15.33;11.33;;;;;;;7.77;100.00;102146.84;2065391;28;20193;-62
2022/10/22 02:02:59;;;;;;;17.05;11.20;;;;;;;7.88;100.00;102156.84;2065611;28;20179;-61
2022/10/22 02:04:06;;;;;;;13.60;11.02;;;;;;;7.81;100.00;102154.03;2064728;28;20272;-61
2022/10/22 02:05:16;;;;;;;14.80;10.80;;;;;;;7.78;100.00;102157.53;2065080;28;20273;-62
2022/10/22 02:06:20;;;;;;;14.48;11.55;;;;;;;7.81;100.00;102161.50;2063958;28;20261;-62
2022/10/22 02:07:27;;;;;;;18.63;11.45;;;;;;;7.78;100.00;102176.03;2064373;28;20183;-62
2022/10/22 02:08:31;;;;;;;13.85;10.93;;;;;;;7.81;100.00;102164.25;2064127;28;20189;-62
2022/10/22 02:09:34;;;;;;;18.98;10.70;;;;;;;7.87;100.00;102160.78;2064660;28;20265;-62
2022/10/22 02:10:38;;;;;;;16.90;10.00;;;;;;;7.93;100.00;102162.03;2064799;28;20579;-61
2022/10/22 02:11:40;;;;;;;17.73;11.27;;;;;;;7.49;100.00;102088.59;2065035;28;20202;-62
2022/10/22 02:12:44;;;;;;;14.18;10.32;;;;;;;7.58;100.00;102084.34;2065305;28;20195;-61
2022/10/22 02:13:50;;;;;;;15.95;11.05;;;;;;;8.06;100.00;102157.84;2064596;28;20277;-61
2022/10/22 02:14:52;;;;;;;16.58;10.90;;;;;;;8.10;100.00;102155.13;2065579;28;20203;-62
2022/10/22 02:15:54;;;;;;;14.73;10.88;;;;;;;8.14;100.00;102158.69;2065027;28;20720;-61
2022/10/22 02:16:58;;;;;;;11.98;10.50;;;;;;;7.45;100.00;102047.19;2065294;28;20619;-62
2022/10/22 02:18:00;;;;;;;16.15;10.80;;;;;;;8.20;100.00;102160.00;2065098;28;20186;-62
2022/10/22 02:19:07;;;;;;;13.98;10.43;;;;;;;8.24;100.00;102156.09;2065118;28;20612;-61
2022/10/22 02:20:15;;;;;;;16.08;11.00;;;;;;;8.27;100.00;102154.53;2065118;28;20277;-62
2022/10/22 02:21:19;;;;;;;14.40;10.40;;;;;;;8.26;100.00;102141.91;2064980;28;20186;-62
2022/10/22 02:22:19;;;;;;;11.65;9.60;;;;;;;8.31;100.00;102156.16;2065354;28;20210;-61
2022/10/22 02:23:20;;;;;;;13.50;10.03;;;;;;;8.16;100.00;102129.53;2064578;28;20191;-62
2022/10/22 02:24:21;;;;;;;11.65;9.50;;;;;;;8.33;100.00;102156.56;2064017;28;20187;-62
2022/10/22 02:25:26;;;;;;;15.10;9.73;;;;;;;8.38;100.00;102153.47;2064921;28;20249;-62
2022/10/22 02:26:43;;;;;;;13.90;9.95;;;;;;;8.42;100.00;102146.00;2064190;28;20244;-62
2022/10/22 02:27:50;;;;;;;13.45;10.20;;;;;;;8.41;100.00;102144.41;2065065;28;20173;-62
2022/10/22 02:28:53;;;;;;;11.38;9.13;;;;;;;8.45;100.00;102148.00;2064901;28;20659;-61
2022/10/22 02:30:01;;;;;;;13.30;9.80;;;;;;;8.45;100.00;102148.00;2064799;28;20191;-62
2022/10/22 02:31:14;;;;;;;15.40;9.88;;;;;;;8.49;100.00;102150.78;2065188;28;20185;-62
2022/10/22 02:32:20;;;;;;;14.23;9.30;;;;;;;8.51;100.00;102154.75;2064958;28;20182;-62
2022/10/22 02:33:27;;;;;;;14.50;9.32;;;;;;;8.02;100.00;102060.38;2063949;28;20171;-61
2022/10/22 02:34:30;;;;;;;13.50;9.23;;;;;;;8.60;100.00;102146.94;2064532;28;20697;-62
2022/10/22 02:35:31;;;;;;;11.85;8.55;;;;;;;8.54;100.00;102131.09;2065003;28;20194;-61
2022/10/22 02:36:31;;;;;;;11.37;9.03;;;;;;;8.31;100.00;102081.56;2064710;28;20202;-62
2022/10/22 02:37:32;;;;;;;13.40;9.10;;;;;;;8.69;100.00;102136.38;2064808;28;20194;-62
2022/10/22 02:38:35;;;;;;;14.98;9.38;;;;;;;8.72;100.00;102143.88;2064702;28;20838;-62
2022/10/22 02:39:36;;;;;;;11.05;8.98;;;;;;;8.78;100.00;102141.56;2064114;28;20199;-62
2022/10/22 02:40:37;;;;;;;11.75;9.00;;;;;;;8.75;100.00;102145.88;2064896;28;20202;-62
2022/10/22 02:41:38;;;;;;;14.68;9.77;;;;;;;8.78;100.00;102145.13;2064573;28;20222;-62
2022/10/22 02:42:41;;;;;;;14.80;9.53;;;;;;;8.84;100.00;102145.56;2065069;28;20186;-62
2022/10/22 02:43:52;;;;;;;13.20;9.30;;;;;;;8.87;100.00;102145.56;2064549;28;20628;-62
2022/10/22 02:44:52;;;;;;;11.77;9.23;;;;;;;8.92;100.00;102150.75;2064242;28;20667;-61
2022/10/22 02:45:53;;;;;;;12.23;9.03;;;;;;;8.99;100.00;102155.53;2065299;28;20655;-62
2022/10/22 02:46:53;;;;;;;13.83;9.00;;;;;;;9.01;100.00;102153.16;2064607;28;20194;-61
2022/10/22 02:47:54;;;;;;;12.63;9.17;;;;;;;9.05;100.00;102145.69;2065018;28;20273;-62
2022/10/22 02:48:54;;;;;;;13.33;9.33;;;;;;;9.07;100.00;102148.88;2063743;28;20639;-62
2022/10/22 02:49:54;;;;;;;12.47;9.27;;;;;;;9.11;100.00;102150.47;2064395;28;20199;-61
2022/10/22 02:50:55;;;;;;;11.57;9.00;;;;;;;9.15;100.00;102148.53;2063476;28;20218;-62
2022/10/22 02:51:56;;;;;;;11.37;9.10;;;;;;;8.89;100.00;102104.53;2064469;28;20186;-62
2022/10/22 02:52:56;;;;;;;11.23;9.03;;;;;;;9.18;100.00;102149.75;2065039;28;20558;-62
2022/10/22 02:53:57;;;;;;;11.30;8.60;;;;;;;9.07;100.00;102129.53;2064786;28;20946;-62
2022/10/22 02:54:57;;;;;;;13.40;9.30;;;;;;;9.15;100.00;102139.44;2063977;28;20662;-62
2022/10/22 02:55:58;;;;;;;13.83;9.83;;;;;;;9.17;100.00;102148.94;2064715;28;20194;-61
2022/10/22 02:56:59;;;;;;;11.40;9.63;;;;;;;9.20;100.00;102137.13;2064853;28;20280;-61
2022/10/22 02:57:59;;;;;;;13.13;9.03;;;;;;;9.21;100.00;102135.13;2064828;28;20249;-61
2022/10/22 02:58:59;;;;;;;12.80;9.47;;;;;;;9.19;100.00;102140.25;2064150;28;20210;-62
2022/10/22 03:00:00;;;;;;;12.40;9.40;;;;;;;9.17;100.00;102143.41;2063845;28;20277;-62
2022/10/22 03:01:00;;;;;;;14.73;10.27;;;;;;;9.17;100.00;102143.41;2064139;28;20193;-62
2022/10/22 03:02:01;;;;;;;12.73;10.13;;;;;;;9.15;100.00;102139.44;2064521;28;20648;-62
2022/10/22 03:03:01;;;;;;;13.47;10.03;;;;;;;9.14;100.00;102137.84;2064059;28;20190;-61
2022/10/22 03:04:02;;;;;;;14.03;9.40;;;;;;;9.15;100.00;102133.91;2064314;28;20186;-62
2022/10/22 03:05:03;;;;;;;14.57;10.03;;;;;;;8.88;100.00;102089.13;2064806;28;20564;-61
2022/10/22 03:06:04;;;;;;;16.15;10.18;;;;;;;8.54;100.00;102040.72;2064842;28;20320;-62
2022/10/22 03:07:04;;;;;;;13.53;9.87;;;;;;;8.53;100.00;102032.81;2064818;28;20722;-61
2022/10/22 03:08:05;;;;;;;14.63;10.20;;;;;;;8.63;100.00;102060.53;2064779;28;20186;-62
2022/10/22 03:09:05;;;;;;;13.60;10.07;;;;;;;9.14;100.00;102127.59;2064513;28;20190;-61
2022/10/22 03:10:06;;;;;;;15.20;10.43;;;;;;;9.14;100.00;102132.31;2064960;28;20244;-62
2022/10/22 03:11:07;;;;;;;14.63;10.63;;;;;;;9.11;100.00;102136.66;2064541;28;20264;-61
2022/10/22 03:12:08;;;;;;;18.40;10.30;;;;;;;9.05;100.00;102135.44;2064007;28;20897;-61
2022/10/22 03:13:08;;;;;;;14.70;10.37;;;;;;;9.07;100.00;102140.59;2063940;28;20191;-62
2022/10/22 03:14:08;;;;;;;14.40;10.70;;;;;;;9.04;100.00;102133.84;2064133;28;20200;-61
2022/10/22 03:15:09;;;;;;;12.33;10.00;;;;;;;9.00;100.00;102130.28;2064234;28;20205;-62
2022/10/22 03:16:09;;;;;;;15.43;10.73;;;;;;;9.01;100.00;102137.38;2064276;28;20256;-63
2022/10/22 03:17:10;;;;;;;15.13;10.63;;;;;;;8.97;100.00;102125.50;2063626;28;20199;-62
2022/10/22 03:18:10;;;;;;;15.33;10.43;;;;;;;8.97;100.00;102128.25;2064710;28;20200;-62
2022/10/22 03:19:11;;;;;;;12.83;10.53;;;;;;;8.55;100.00;102052.53;2063025;28;20770;-62
2022/10/22 03:20:11;;;;;;;13.30;10.83;;;;;;;8.98;100.00;102126.31;2064575;28;20326;-62
2022/10/22 03:21:32;;;;;;;14.27;10.53;;;;;;;8.96;100.00;102123.13;2064734;28;20662;-62
2022/10/22 03:22:34;;;;;;;13.20;10.27;;;;;;;8.48;100.00;102046.97;2063814;28;20194;-62
2022/10/22 03:23:35;;;;;;;14.63;10.43;;;;;;;8.94;100.00;102114.41;2063873;28;20203;-61
2022/10/22 03:24:41;;;;;;;12.25;10.20;;;;;;;8.92;100.00;102112.03;2064626;28;20193;-62
2022/10/22 03:25:42;;;;;;;12.57;11.07;;;;;;;8.91;100.00;102109.69;2064491;28;20194;-62
2022/10/22 03:26:45;;;;;;;15.18;11.07;;;;;;;8.93;100.00;102112.84;2064579;28;20573;-62
2022/10/22 03:27:46;;;;;;;17.10;11.23;;;;;;;8.93;100.00;102116.41;2063151;28;20676;-61
2022/10/22 03:28:47;;;;;;;15.25;11.02;;;;;;;8.74;100.00;102086.25;2064196;28;20190;-61
2022/10/22 03:29:50;;;;;;;13.73;11.27;;;;;;;8.48;100.00;102038.69;2064705;28;20418;-62
2022/10/22 03:30:50;;;;;;;13.95;10.65;;;;;;;8.95;100.00;102111.28;2064339;28;20191;-62
2022/10/22 03:31:52;;;;;;;16.50;11.30;;;;;;;8.94;100.00;102111.66;2063771;28;20190;-62
2022/10/22 03:32:52;;;;;;;16.88;11.07;;;;;;;8.93;100.00;102110.88;2063856;28;20464;-62
2022/10/22 03:33:53;;;;;;;15.83;10.83;;;;;;;8.92;100.00;102109.28;2063992;28;20186;-62
2022/10/22 03:34:53;;;;;;;14.63;10.40;;;;;;;8.93;100.00;102116.41;2064305;28;20194;-62
2022/10/22 03:35:54;;;;;;;16.13;11.37;;;;;;;8.90;100.00;102116.34;2063896;28;20247;-62
2022/10/22 03:36:57;;;;;;;17.00;10.87;;;;;;;8.90;100.00;102116.34;2064459;28;20205;-62
2022/10/22 03:38:00;;;;;;;14.00;10.23;;;;;;;8.88;100.00;102110.44;2063974;28;20193;-61
2022/10/22 03:39:01;;;;;;;16.08;10.70;;;;;;;8.83;100.00;102103.31;2063442;28;20570;-62
2022/10/22 03:40:05;;;;;;;14.23;10.65;;;;;;;8.82;100.00;102111.97;2064645;28;20191;-61
2022/10/22 03:41:06;;;;;;;15.85;11.00;;;;;;;8.82;100.00;102109.22;2063333;28;20252;-62
2022/10/22 03:42:07;;;;;;;16.50;11.67;;;;;;;8.67;100.00;102088.97;2064072;28;20726;-62
2022/10/22 03:43:07;;;;;;;16.02;10.73;;;;;;;8.80;100.00;102117.88;2064244;28;20190;-61
2022/10/22 03:44:08;;;;;;;14.37;10.47;;;;;;;8.79;100.00;102115.50;2063893;28;20669;-61
2022/10/22 03:45:09;;;;;;;15.47;10.80;;;;;;;8.76;100.00;102119.06;2062921;28;20187;-61
2022/10/22 03:46:10;;;;;;;17.90;11.27;;;;;;;8.67;100.00;102104.75;2064310;28;20793;-61
2022/10/22 03:47:10;;;;;;;16.50;11.13;;;;;;;8.74;100.00;102121.38;2064456;28;20441;-62
2022/10/22 03:48:10;;;;;;;17.10;11.13;;;;;;;8.75;100.00;102121.00;2064036;28;20261;-62
2022/10/22 03:49:11;;;;;;;19.80;11.63;;;;;;;8.68;100.00;102112.69;2064131;28;20193;-62
2022/10/22 03:50:12;;;;;;;22.23;12.30;;;;;;;8.77;100.00;102115.09;2064019;28;20237;-61
2022/10/22 03:51:12;;;;;;;20.53;11.37;;;;;;;8.75;100.00;102117.44;2064612;28;20200;-61
2022/10/22 03:52:13;;;;;;;20.20;11.87;;;;;;;8.76;100.00;102119.06;2064354;28;20257;-61
2022/10/22 03:53:14;;;;;;;20.77;11.45;;;;;;;8.77;100.00;102121.41;2064064;28;20193;-62
2022/10/22 03:54:15;;;;;;;17.63;11.60;;;;;;;8.79;100.00;102121.03;2064187;28;20281;-62
2022/10/22 03:55:16;;;;;;;17.10;10.95;;;;;;;8.59;100.00;102086.53;2064555;28;20636;-62
2022/10/22 03:56:16;;;;;;;18.13;11.67;;;;;;;8.81;100.00;102113.94;2064448;28;20191;-62
2022/10/22 03:57:16;;;;;;;16.27;11.50;;;;;;;8.82;100.00;102107.22;2063395;28;20197;-62
2022/10/22 03:58:17;;;;;;;17.97;10.73;;;;;;;8.84;100.00;102099.34;2064229;28;20657;-61
2022/10/22 03:59:17;;;;;;;17.13;11.03;;;;;;;8.65;100.00;102057.34;2063229;28;20207;-61
2022/10/22 04:00:18;;;;;;;18.77;10.57;;;;;;;8.41;100.00;102011.78;2064413;28;20194;-61
2022/10/22 04:01:18;;;;;;;14.17;10.67;;;;;;;8.95;100.00;102104.94;2063414;28;20183;-62
2022/10/22 04:02:19;;;;;;;15.30;10.87;;;;;;;8.96;100.00;102101.78;2063821;28;20191;-61
2022/10/22 04:03:19;;;;;;;14.70;10.27;;;;;;;8.97;100.00;102108.13;2064156;28;20261;-62
2022/10/22 04:04:20;;;;;;;17.63;10.63;;;;;;;8.98;100.00;102106.94;2063886;28;20697;-61
2022/10/22 04:05:20;;;;;;;17.27;10.70;;;;;;;9.00;100.00;102105.38;2064592;28;20254;-62
2022/10/22 04:06:20;;;;;;;16.17;10.40;;;;;;;8.98;100.00;102104.97;2063872;28;20240;-61
2022/10/22 04:07:21;;;;;;;14.93;10.50;;;;;;;9.01;100.00;102100.63;2063234;28;20198;-61
2022/10/22 04:08:21;;;;;;;16.43;10.97;;;;;;;9.03;100.00;102103.81;2063952;28;20201;-61
2022/10/22 04:09:22;;;;;;;25.10;11.77;;;;;;;9.05;100.00;102098.69;2063157;28;20187;-62
2022/10/22 04:10:22;;;;;;;21.43;11.60;;;;;;;9.05;100.00;102087.63;2064088;28;20184;-62
2022/10/22 04:11:23;;;;;;;37.83;12.00;;;;;;;9.06;100.00;102092.78;2064323;28;20266;-61
2022/10/22 04:12:23;;;;;;;22.90;11.80;;;;;;;9.05;100.00;102082.09;2064149;28;20182;-61
2022/10/22 04:13:24;;;;;;;26.67;11.63;;;;;;;8.76;100.00;102031.38;2064059;28;20194;-62
2022/10/22 04:14:24;;;;;;;22.77;11.23;;;;;;;9.12;100.00;102088.44;2064023;28;20548;-62
2022/10/22 04:15:27;;;;;;;28.00;11.67;;;;;;;9.14;100.00;102097.19;2064136;28;20190;-62
2022/10/22 04:16:29;;;;;;;34.40;12.25;;;;;;;9.15;100.00;102084.94;2064146;28;20555;-62
2022/10/22 04:17:34;;;;;;;20.03;11.47;;;;;;;9.16;100.00;102094.81;2064228;28;20649;-62
2022/10/22 04:18:36;;;;;;;21.25;11.00;;;;;;;9.18;100.00;102092.44;2063411;28;20429;-61
2022/10/22 04:19:36;;;;;;;19.23;10.65;;;;;;;9.22;100.00;102107.09;2064302;28;20507;-62
2022/10/22 04:20:37;;;;;;;23.23;11.10;;;;;;;9.19;100.00;102085.75;2064430;28;20180;-62
2022/10/22 04:21:37;;;;;;;20.07;10.97;;;;;;;9.22;100.00;102087.72;2063968;28;20292;-61
2022/10/22 04:22:38;;;;;;;19.47;11.13;;;;;;;9.24;100.00;102090.09;2064181;28;20184;-62
2022/10/22 04:23:38;;;;;;;20.30;10.93;;;;;;;9.27;100.00;102092.09;2063750;28;20191;-61
2022/10/22 04:24:39;;;;;;;22.67;11.00;;;;;;;9.27;100.00;102095.66;2063609;28;20276;-61
2022/10/22 04:25:39;;;;;;;24.20;11.13;;;;;;;8.53;100.00;101983.88;2062894;28;20208;-62
2022/10/22 04:26:40;;;;;;;22.37;11.43;;;;;;;9.24;100.00;102099.19;2064356;28;20190;-62
2022/10/22 04:27:41;;;;;;;21.93;10.67;;;;;;;9.26;100.00;102102.38;2063881;28;20188;-62
2022/10/22 04:28:42;;;;;;;14.80;10.17;;;;;;;9.23;100.00;102116.19;2063944;28;20474;-62
2022/10/22 04:29:42;;;;;;;11.05;9.80;;;;;;;9.22;100.00;102118.13;2063971;28;20590;-62
2022/10/22 04:30:43;;;;;;;13.03;9.80;;;;;;;9.22;100.00;102114.59;2064163;28;20243;-62
2022/10/22 04:31:43;;;;;;;13.33;9.77;;;;;;;8.58;100.00;102002.06;2062795;28;20184;-61
2022/10/22 04:32:43;;;;;;;14.47;10.13;;;;;;;8.83;100.00;102044.44;2063113;28;20191;-62
2022/10/22 04:33:44;;;;;;;15.33;10.23;;;;;;;9.26;100.00;102099.59;2063410;28;20634;-62
2022/10/22 04:34:45;;;;;;;13.73;9.88;;;;;;;9.27;100.00;102092.88;2064263;28;20200;-62
2022/10/22 04:35:46;;;;;;;12.17;9.53;;;;;;;9.29;100.00;102090.53;2063894;28;20175;-62
2022/10/22 04:36:46;;;;;;;12.67;9.80;;;;;;;9.31;100.00;102090.13;2064301;28;20236;-62
2022/10/22 04:37:47;;;;;;;15.60;9.57;;;;;;;9.32;100.00;102083.44;2064145;28;20208;-61
2022/10/22 04:38:54;;;;;;;14.27;9.37;;;;;;;9.35;100.00;102086.22;2064433;28;20748;-62
2022/10/22 04:39:54;;;;;;;12.60;10.03;;;;;;;9.35;100.00;102088.97;2062556;28;20259;-62
2022/10/22 04:40:55;;;;;;;16.27;10.17;;;;;;;9.37;100.00;102099.66;2063023;28;20436;-62
2022/10/22 04:41:55;;;;;;;13.30;9.90;;;;;;;9.40;100.00;102093.34;2063963;28;20240;-62
2022/10/22 04:42:56;;;;;;;14.77;9.97;;;;;;;9.42;100.00;102091.75;2063860;28;20192;-62
2022/10/22 04:43:57;;;;;;;13.23;9.57;;;;;;;9.42;100.00;102097.28;2063757;28;20189;-62
2022/10/22 04:44:57;;;;;;;13.47;9.27;;;;;;;8.85;100.00;102006.94;2063672;28;20175;-62
2022/10/22 04:45:59;;;;;;;15.23;10.07;;;;;;;9.45;100.00;102096.53;2063001;28;20429;-61
2022/10/22 04:47:00;;;;;;;16.40;10.33;;;;;;;9.47;100.00;102090.59;2063350;28;20183;-63
2022/10/22 04:48:00;;;;;;;14.03;9.60;;;;;;;9.44;100.00;102088.63;2064153;28;20474;-62
2022/10/22 04:49:02;;;;;;;14.90;9.60;;;;;;;9.29;100.00;102062.06;2063675;28;20293;-61
2022/10/22 04:50:03;;;;;;;14.07;10.00;;;;;;;9.45;100.00;102095.72;2060776;28;20194;-62